sensor_id;sensor_type;location;lat;lon;timestamp;pressure;altitude;pressure_sealevel;temperature;humidity
818;BME280;391;51.052;6.954;2023-01-10T00:01:44;100564.66;;;6.87;92.72
818;BME280;391;51.052;6.954;2023-01-10T00:03:47;100573.78;;;6.78;92.90
818;BME280;391;51.052;6.954;2023-01-10T00:05:51;100581.97;;;6.68;92.99
818;BME280;391;51.052;6.954;2023-01-10T00:07:55;100584.44;;;6.65;93.06
818;BME280;391;51.052;6.954;2023-01-10T00:10:00;100597.53;;;6.68;93.47
818;BME280;391;51.052;6.954;2023-01-10T00:12:03;100602.03;;;6.72;92.80
818;BME280;391;51.052;6.954;2023-01-10T00:14:25;100608.84;;;6.70;92.74
818;BME280;391;51.052;6.954;2023-01-10T00:16:29;100617.59;;;6.73;92.49
818;BME280;391;51.052;6.954;2023-01-10T00:18:33;100619.38;;;6.74;92.46
818;BME280;391;51.052;6.954;2023-01-10T00:20:36;100627.16;;;6.74;92.07
818;BME280;391;51.052;6.954;2023-01-10T00:22:39;100640.31;;;6.79;92.05
818;BME280;391;51.052;6.954;2023-01-10T00:24:44;100635.56;;;6.69;91.66
818;BME280;391;51.052;6.954;2023-01-10T00:26:50;100612.03;;;6.44;91.92
818;BME280;391;51.052;6.954;2023-01-10T00:28:53;100643.22;;;6.66;92.12
818;BME280;391;51.052;6.954;2023-01-10T00:30:57;100651.78;;;6.65;91.35
818;BME280;391;51.052;6.954;2023-01-10T00:33:02;100660.38;;;6.64;91.65
818;BME280;391;51.052;6.954;2023-01-10T00:35:07;100660.25;;;6.61;91.05
818;BME280;391;51.052;6.954;2023-01-10T00:37:12;100665.13;;;6.53;91.36
818;BME280;391;51.052;6.954;2023-01-10T00:39:15;100672.75;;;6.50;91.10
818;BME280;391;51.052;6.954;2023-01-10T00:41:22;100664.97;;;6.50;91.47
818;BME280;391;51.052;6.954;2023-01-10T00:43:43;100676.50;;;6.57;91.10
818;BME280;391;51.052;6.954;2023-01-10T00:46:01;100677.50;;;6.60;91.07
818;BME280;391;51.052;6.954;2023-01-10T00:48:05;100680.84;;;6.58;90.63
818;BME280;391;51.052;6.954;2023-01-10T00:50:09;100685.00;;;6.54;90.75
818;BME280;391;51.052;6.954;2023-01-10T00:52:13;100684.13;;;6.54;90.85
818;BME280;391;51.052;6.954;2023-01-10T00:54:16;100691.31;;;6.61;90.67
818;BME280;391;51.052;6.954;2023-01-10T00:56:22;100687.53;;;6.53;90.23
818;BME280;391;51.052;6.954;2023-01-10T00:58:26;100696.38;;;6.58;90.64
818;BME280;391;51.052;6.954;2023-01-10T01:00:29;100697.63;;;6.47;90.23
818;BME280;391;51.052;6.954;2023-01-10T01:02:33;100723.13;;;6.57;90.01
818;BME280;391;51.052;6.954;2023-01-10T01:04:36;100722.41;;;6.61;90.05
818;BME280;391;51.052;6.954;2023-01-10T01:06:42;100734.69;;;6.65;89.99
818;BME280;391;51.052;6.954;2023-01-10T01:08:45;100728.81;;;6.69;89.68
818;BME280;391;51.052;6.954;2023-01-10T01:10:49;100731.59;;;6.73;90.05
818;BME280;391;51.052;6.954;2023-01-10T01:12:55;100738.38;;;6.70;89.34
818;BME280;391;51.052;6.954;2023-01-10T01:14:58;100740.97;;;6.70;89.64
818;BME280;391;51.052;6.954;2023-01-10T01:17:02;100739.06;;;6.66;89.54
818;BME280;391;51.052;6.954;2023-01-10T01:19:05;100742.47;;;6.65;89.90
818;BME280;391;51.052;6.954;2023-01-10T01:21:09;100751.34;;;6.70;89.67
818;BME280;391;51.052;6.954;2023-01-10T01:23:13;100752.69;;;6.62;89.41
818;BME280;391;51.052;6.954;2023-01-10T01:25:17;100759.91;;;6.69;89.50
818;BME280;391;51.052;6.954;2023-01-10T01:27:20;100755.94;;;6.77;89.54
818;BME280;391;51.052;6.954;2023-01-10T01:29:25;100761.41;;;6.64;89.34
818;BME280;391;51.052;6.954;2023-01-10T01:31:43;100767.88;;;6.73;89.26
818;BME280;391;51.052;6.954;2023-01-10T01:33:46;100773.28;;;6.78;88.79
818;BME280;391;51.052;6.954;2023-01-10T01:35:50;100783.72;;;6.79;89.06
818;BME280;391;51.052;6.954;2023-01-10T01:37:53;100777.97;;;6.86;88.48
818;BME280;391;51.052;6.954;2023-01-10T01:39:56;100782.47;;;6.90;88.02
818;BME280;391;51.052;6.954;2023-01-10T01:42:00;100782.47;;;6.71;88.62
818;BME280;391;51.052;6.954;2023-01-10T01:44:05;100801.00;;;6.80;88.81
818;BME280;391;51.052;6.954;2023-01-10T01:46:10;100798.91;;;6.72;88.36
818;BME280;391;51.052;6.954;2023-01-10T01:48:18;100755.41;;;6.46;88.37
818;BME280;391;51.052;6.954;2023-01-10T01:50:25;100791.53;;;6.62;88.53
818;BME280;391;51.052;6.954;2023-01-10T01:52:33;100803.06;;;6.68;88.50
818;BME280;391;51.052;6.954;2023-01-10T01:54:38;100811.78;;;6.70;88.27
818;BME280;391;51.052;6.954;2023-01-10T01:56:45;100821.56;;;6.76;88.33
818;BME280;391;51.052;6.954;2023-01-10T01:58:54;100834.78;;;6.82;88.49
818;BME280;391;51.052;6.954;2023-01-10T02:00:59;100817.72;;;6.87;87.73
818;BME280;391;51.052;6.954;2023-01-10T02:03:05;100833.53;;;6.93;87.50
818;BME280;391;51.052;6.954;2023-01-10T02:05:10;100827.41;;;6.91;87.60
818;BME280;391;51.052;6.954;2023-01-10T02:07:15;100835.53;;;6.79;88.00
818;BME280;391;51.052;6.954;2023-01-10T02:09:24;100829.78;;;6.86;87.43
818;BME280;391;51.052;6.954;2023-01-10T02:11:30;100831.22;;;6.80;87.60
818;BME280;391;51.052;6.954;2023-01-10T02:13:37;100831.91;;;6.76;87.62
818;BME280;391;51.052;6.954;2023-01-10T02:15:42;100830.63;;;6.66;87.86
818;BME280;391;51.052;6.954;2023-01-10T02:17:46;100833.53;;;6.74;87.64
818;BME280;391;51.052;6.954;2023-01-10T02:19:53;100829.06;;;6.70;87.59
818;BME280;391;51.052;6.954;2023-01-10T02:22:26;100833.94;;;6.64;87.56
818;BME280;391;51.052;6.954;2023-01-10T02:24:59;100830.78;;;6.52;87.50
818;BME280;391;51.052;6.954;2023-01-10T02:27:17;100832.84;;;6.59;88.11
818;BME280;391;51.052;6.954;2023-01-10T02:32:07;100836.72;;;6.49;87.76
818;BME280;391;51.052;6.954;2023-01-10T02:34:16;100854.97;;;6.52;88.02
818;BME280;391;51.052;6.954;2023-01-10T02:36:33;100854.19;;;6.53;87.63
818;BME280;391;51.052;6.954;2023-01-10T02:38:50;100855.13;;;6.55;87.67
818;BME280;391;51.052;6.954;2023-01-10T02:41:07;100861.13;;;6.73;87.11
818;BME280;391;51.052;6.954;2023-01-10T02:43:13;100857.47;;;6.68;86.79
818;BME280;391;51.052;6.954;2023-01-10T02:45:24;100853.56;;;6.59;86.62
818;BME280;391;51.052;6.954;2023-01-10T02:47:35;100859.25;;;6.52;87.12
818;BME280;391;51.052;6.954;2023-01-10T02:49:41;100860.81;;;6.66;87.18
818;BME280;391;51.052;6.954;2023-01-10T02:51:44;100859.63;;;6.59;86.68
818;BME280;391;51.052;6.954;2023-01-10T02:53:50;100856.03;;;6.75;86.71
818;BME280;391;51.052;6.954;2023-01-10T02:58:34;100862.81;;;6.90;85.82
818;BME280;391;51.052;6.954;2023-01-10T03:00:44;100853.59;;;6.78;85.67
818;BME280;391;51.052;6.954;2023-01-10T03:03:12;100875.22;;;6.78;85.97
818;BME280;391;51.052;6.954;2023-01-10T03:05:24;100873.66;;;6.82;85.99
818;BME280;391;51.052;6.954;2023-01-10T03:07:35;100875.97;;;6.76;85.70
818;BME280;391;51.052;6.954;2023-01-10T03:09:44;100875.88;;;6.74;85.88
818;BME280;391;51.052;6.954;2023-01-10T03:11:58;100889.09;;;6.80;85.51
818;BME280;391;51.052;6.954;2023-01-10T03:14:04;100886.38;;;6.77;85.56
818;BME280;391;51.052;6.954;2023-01-10T03:16:12;100884.88;;;6.63;85.67
818;BME280;391;51.052;6.954;2023-01-10T03:18:22;100890.78;;;6.61;85.98
818;BME280;391;51.052;6.954;2023-01-10T03:20:28;100885.59;;;6.61;85.59
818;BME280;391;51.052;6.954;2023-01-10T03:22:36;100888.19;;;6.61;85.48
818;BME280;391;51.052;6.954;2023-01-10T03:24:44;100890.94;;;6.46;86.01
818;BME280;391;51.052;6.954;2023-01-10T03:26:52;100904.41;;;6.39;86.45
818;BME280;391;51.052;6.954;2023-01-10T03:29:02;100902.56;;;6.36;86.27
818;BME280;391;51.052;6.954;2023-01-10T03:31:10;100898.13;;;6.52;86.21
818;BME280;391;51.052;6.954;2023-01-10T03:33:23;100906.03;;;6.55;86.07
818;BME280;391;51.052;6.954;2023-01-10T03:35:33;100911.16;;;6.53;85.66
818;BME280;391;51.052;6.954;2023-01-10T03:37:43;100918.25;;;6.57;85.31
818;BME280;391;51.052;6.954;2023-01-10T03:39:52;100912.63;;;6.48;85.32
818;BME280;391;51.052;6.954;2023-01-10T03:42:06;100908.47;;;6.52;85.56
818;BME280;391;51.052;6.954;2023-01-10T03:44:15;100915.72;;;6.59;85.09
818;BME280;391;51.052;6.954;2023-01-10T03:46:48;100919.53;;;6.48;84.79
818;BME280;391;51.052;6.954;2023-01-10T03:48:56;100925.00;;;6.54;85.29
818;BME280;391;51.052;6.954;2023-01-10T03:51:02;100930.97;;;6.53;84.99
818;BME280;391;51.052;6.954;2023-01-10T03:53:07;100938.16;;;6.58;85.01
818;BME280;391;51.052;6.954;2023-01-10T03:55:12;100945.56;;;6.51;85.35
818;BME280;391;51.052;6.954;2023-01-10T03:57:21;100950.75;;;6.51;84.95
818;BME280;391;51.052;6.954;2023-01-10T03:59:26;100952.78;;;6.58;84.79
818;BME280;391;51.052;6.954;2023-01-10T04:01:30;100937.84;;;6.52;85.13
818;BME280;391;51.052;6.954;2023-01-10T04:03:35;100952.78;;;6.58;84.55
818;BME280;391;51.052;6.954;2023-01-10T04:05:39;100954.28;;;6.53;84.40
818;BME280;391;51.052;6.954;2023-01-10T04:07:43;100957.81;;;6.55;84.83
818;BME280;391;51.052;6.954;2023-01-10T04:09:46;100960.72;;;6.43;84.85
818;BME280;391;51.052;6.954;2023-01-10T04:11:50;100964.78;;;6.56;85.03
818;BME280;391;51.052;6.954;2023-01-10T04:13:53;100974.34;;;6.57;84.75
818;BME280;391;51.052;6.954;2023-01-10T04:15:58;100981.53;;;6.62;85.12
818;BME280;391;51.052;6.954;2023-01-10T04:18:02;100982.56;;;6.66;84.46
818;BME280;391;51.052;6.954;2023-01-10T04:20:06;100990.03;;;6.60;84.61
818;BME280;391;51.052;6.954;2023-01-10T04:22:11;100987.44;;;6.60;85.13
818;BME280;391;51.052;6.954;2023-01-10T04:24:14;100991.41;;;6.35;84.98
818;BME280;391;51.052;6.954;2023-01-10T04:26:18;100987.38;;;6.41;85.75
818;BME280;391;51.052;6.954;2023-01-10T04:28:21;100990.84;;;6.41;85.55
818;BME280;391;51.052;6.954;2023-01-10T04:30:26;100999.19;;;6.35;85.65
818;BME280;391;51.052;6.954;2023-01-10T04:32:29;100996.19;;;6.44;85.60
818;BME280;391;51.052;6.954;2023-01-10T04:34:32;100988.25;;;6.41;85.90
818;BME280;391;51.052;6.954;2023-01-10T04:36:36;100991.00;;;6.44;85.94
818;BME280;391;51.052;6.954;2023-01-10T04:38:41;100991.16;;;6.47;85.59
818;BME280;391;51.052;6.954;2023-01-10T04:40:50;100994.16;;;6.38;85.44
818;BME280;391;51.052;6.954;2023-01-10T04:42:54;100994.19;;;6.22;86.54
818;BME280;391;51.052;6.954;2023-01-10T04:44:57;100991.47;;;6.19;87.37
818;BME280;391;51.052;6.954;2023-01-10T04:47:00;100996.22;;;6.28;86.72
818;BME280;391;51.052;6.954;2023-01-10T04:49:04;100989.13;;;6.24;87.23
818;BME280;391;51.052;6.954;2023-01-10T04:51:08;100993.19;;;6.19;86.92
818;BME280;391;51.052;6.954;2023-01-10T04:53:11;100994.13;;;6.21;86.67
818;BME280;391;51.052;6.954;2023-01-10T04:55:16;100992.91;;;6.30;86.74
818;BME280;391;51.052;6.954;2023-01-10T04:57:19;100999.13;;;6.34;86.51
818;BME280;391;51.052;6.954;2023-01-10T04:59:23;101003.53;;;6.19;87.36
818;BME280;391;51.052;6.954;2023-01-10T05:01:26;101005.19;;;6.34;86.66
818;BME280;391;51.052;6.954;2023-01-10T05:03:30;101005.09;;;6.33;86.17
818;BME280;391;51.052;6.954;2023-01-10T05:05:33;100983.22;;;6.10;86.55
818;BME280;391;51.052;6.954;2023-01-10T05:07:37;101004.94;;;6.30;86.47
818;BME280;391;51.052;6.954;2023-01-10T05:09:40;101014.47;;;6.47;86.11
818;BME280;391;51.052;6.954;2023-01-10T05:11:46;101020.19;;;6.42;85.81
818;BME280;391;51.052;6.954;2023-01-10T05:13:49;101028.91;;;6.26;86.11
818;BME280;391;51.052;6.954;2023-01-10T05:15:53;101013.22;;;6.23;85.93
818;BME280;391;51.052;6.954;2023-01-10T05:17:57;101025.38;;;6.42;85.83
818;BME280;391;51.052;6.954;2023-01-10T05:20:01;101035.97;;;6.28;85.94
818;BME280;391;51.052;6.954;2023-01-10T05:22:04;101038.03;;;6.35;85.79
818;BME280;391;51.052;6.954;2023-01-10T05:24:08;101040.84;;;6.40;85.97
818;BME280;391;51.052;6.954;2023-01-10T05:26:16;101039.31;;;6.44;85.61
818;BME280;391;51.052;6.954;2023-01-10T05:28:21;101034.03;;;6.42;86.04
818;BME280;391;51.052;6.954;2023-01-10T05:30:24;101035.59;;;6.38;85.87
818;BME280;391;51.052;6.954;2023-01-10T05:32:28;101034.47;;;6.33;85.76
818;BME280;391;51.052;6.954;2023-01-10T05:34:31;101036.25;;;6.34;86.37
818;BME280;391;51.052;6.954;2023-01-10T05:36:35;101042.25;;;6.33;85.50
818;BME280;391;51.052;6.954;2023-01-10T05:38:38;101039.19;;;6.24;86.22
818;BME280;391;51.052;6.954;2023-01-10T05:40:42;101038.72;;;6.15;86.30
818;BME280;391;51.052;6.954;2023-01-10T05:42:45;101032.91;;;6.03;86.83
818;BME280;391;51.052;6.954;2023-01-10T05:44:50;101050.94;;;6.18;86.99
818;BME280;391;51.052;6.954;2023-01-10T05:46:53;101058.13;;;6.23;86.89
818;BME280;391;51.052;6.954;2023-01-10T05:48:56;101060.31;;;6.16;87.14
818;BME280;391;51.052;6.954;2023-01-10T05:51:00;101068.59;;;6.09;86.79
818;BME280;391;51.052;6.954;2023-01-10T05:53:03;101073.66;;;6.07;86.92
818;BME280;391;51.052;6.954;2023-01-10T05:55:08;101076.19;;;6.06;87.32
818;BME280;391;51.052;6.954;2023-01-10T05:57:11;101067.69;;;6.08;87.42
818;BME280;391;51.052;6.954;2023-01-10T05:59:15;101061.16;;;5.99;87.04
818;BME280;391;51.052;6.954;2023-01-10T06:01:30;101048.38;;;5.85;87.32
818;BME280;391;51.052;6.954;2023-01-10T06:03:34;101058.47;;;5.97;87.50
818;BME280;391;51.052;6.954;2023-01-10T06:05:38;101020.84;;;5.71;87.08
818;BME280;391;51.052;6.954;2023-01-10T06:07:41;101075.47;;;5.92;87.72
818;BME280;391;51.052;6.954;2023-01-10T06:09:44;101086.25;;;5.85;87.71
818;BME280;391;51.052;6.954;2023-01-10T06:11:48;101095.91;;;5.88;88.18
818;BME280;391;51.052;6.954;2023-01-10T06:13:51;101110.91;;;5.78;87.77
818;BME280;391;51.052;6.954;2023-01-10T06:15:56;101111.53;;;5.74;88.62
818;BME280;391;51.052;6.954;2023-01-10T06:18:01;101109.84;;;5.75;88.19
818;BME280;391;51.052;6.954;2023-01-10T06:20:05;101115.13;;;5.76;88.10
818;BME280;391;51.052;6.954;2023-01-10T06:22:09;101102.75;;;5.71;88.35
818;BME280;391;51.052;6.954;2023-01-10T06:24:12;101119.66;;;5.80;87.77
818;BME280;391;51.052;6.954;2023-01-10T06:26:16;101124.91;;;5.82;88.26
818;BME280;391;51.052;6.954;2023-01-10T06:28:20;101113.00;;;5.69;87.57
818;BME280;391;51.052;6.954;2023-01-10T06:30:23;101114.97;;;5.73;88.57
818;BME280;391;51.052;6.954;2023-01-10T06:32:27;101107.09;;;5.72;88.35
818;BME280;391;51.052;6.954;2023-01-10T06:34:31;101122.94;;;5.78;88.15
818;BME280;391;51.052;6.954;2023-01-10T06:36:35;101133.13;;;5.75;88.32
818;BME280;391;51.052;6.954;2023-01-10T06:38:38;101144.22;;;5.72;87.98
818;BME280;391;51.052;6.954;2023-01-10T06:40:41;101152.13;;;5.75;88.10
818;BME280;391;51.052;6.954;2023-01-10T06:42:45;101146.34;;;5.79;88.15
818;BME280;391;51.052;6.954;2023-01-10T06:44:48;101121.34;;;5.64;87.76
818;BME280;391;51.052;6.954;2023-01-10T06:46:51;101144.94;;;5.70;88.03
818;BME280;391;51.052;6.954;2023-01-10T06:48:55;101150.84;;;5.67;88.71
818;BME280;391;51.052;6.954;2023-01-10T06:51:00;101140.84;;;5.73;88.92
818;BME280;391;51.052;6.954;2023-01-10T06:53:03;101144.88;;;5.84;87.68
818;BME280;391;51.052;6.954;2023-01-10T06:55:07;101147.75;;;5.89;87.93
818;BME280;391;51.052;6.954;2023-01-10T06:57:11;101165.31;;;5.95;87.22
818;BME280;391;51.052;6.954;2023-01-10T06:59:14;101170.41;;;5.78;87.71
818;BME280;391;51.052;6.954;2023-01-10T07:01:20;101159.84;;;5.74;88.28
818;BME280;391;51.052;6.954;2023-01-10T07:03:24;101171.31;;;5.79;88.34
818;BME280;391;51.052;6.954;2023-01-10T07:05:28;101166.75;;;5.75;87.75
818;BME280;391;51.052;6.954;2023-01-10T07:07:33;101175.66;;;5.64;88.76
818;BME280;391;51.052;6.954;2023-01-10T07:09:36;101183.81;;;5.71;88.57
818;BME280;391;51.052;6.954;2023-01-10T07:11:39;101188.47;;;5.77;88.48
818;BME280;391;51.052;6.954;2023-01-10T07:13:43;101193.47;;;5.74;88.01
818;BME280;391;51.052;6.954;2023-01-10T07:15:46;101187.63;;;5.78;88.10
818;BME280;391;51.052;6.954;2023-01-10T07:17:50;101189.75;;;5.85;87.77
818;BME280;391;51.052;6.954;2023-01-10T07:19:53;101182.94;;;5.71;87.95
818;BME280;391;51.052;6.954;2023-01-10T07:21:56;101183.81;;;5.71;88.14
818;BME280;391;51.052;6.954;2023-01-10T07:24:01;101188.28;;;5.74;88.58
818;BME280;391;51.052;6.954;2023-01-10T07:26:07;101193.63;;;5.77;88.46
818;BME280;391;51.052;6.954;2023-01-10T07:28:10;101198.88;;;5.78;88.05
818;BME280;391;51.052;6.954;2023-01-10T07:30:14;101201.38;;;5.77;88.03
818;BME280;391;51.052;6.954;2023-01-10T07:32:18;101216.41;;;5.84;87.96
818;BME280;391;51.052;6.954;2023-01-10T07:34:21;101211.91;;;5.80;88.15
818;BME280;391;51.052;6.954;2023-01-10T07:36:24;101213.75;;;5.82;88.35
818;BME280;391;51.052;6.954;2023-01-10T07:38:28;101215.47;;;5.97;91.61
818;BME280;391;51.052;6.954;2023-01-10T07:40:33;101215.63;;;6.00;88.20
818;BME280;391;51.052;6.954;2023-01-10T07:42:36;101217.31;;;5.99;88.07
818;BME280;391;51.052;6.954;2023-01-10T07:44:40;101199.34;;;5.86;88.21
818;BME280;391;51.052;6.954;2023-01-10T07:46:43;101222.63;;;5.86;87.75
818;BME280;391;51.052;6.954;2023-01-10T07:48:47;101217.25;;;5.83;87.98
818;BME280;391;51.052;6.954;2023-01-10T07:50:54;101221.59;;;5.84;88.08
818;BME280;391;51.052;6.954;2023-01-10T07:52:58;101226.25;;;5.75;88.15
818;BME280;391;51.052;6.954;2023-01-10T07:55:02;101240.38;;;5.80;88.23
818;BME280;391;51.052;6.954;2023-01-10T07:57:07;101246.25;;;5.92;87.93
818;BME280;391;51.052;6.954;2023-01-10T07:59:10;101231.44;;;5.90;87.22
818;BME280;391;51.052;6.954;2023-01-10T08:01:15;101239.22;;;5.90;87.30
818;BME280;391;51.052;6.954;2023-01-10T08:03:19;101224.66;;;5.77;87.31
818;BME280;391;51.052;6.954;2023-01-10T08:05:23;101239.38;;;5.78;87.19
818;BME280;391;51.052;6.954;2023-01-10T08:07:27;101244.72;;;5.81;87.76
818;BME280;391;51.052;6.954;2023-01-10T08:09:31;101243.50;;;5.89;87.52
818;BME280;391;51.052;6.954;2023-01-10T08:11:34;101250.47;;;5.90;87.40
818;BME280;391;51.052;6.954;2023-01-10T08:13:39;101253.13;;;5.77;87.36
818;BME280;391;51.052;6.954;2023-01-10T08:15:42;101263.22;;;5.87;87.61
818;BME280;391;51.052;6.954;2023-01-10T08:17:46;101259.97;;;5.91;87.32
818;BME280;391;51.052;6.954;2023-01-10T08:19:50;101261.50;;;5.88;87.58
818;BME280;391;51.052;6.954;2023-01-10T08:21:54;101260.31;;;5.97;86.87
818;BME280;391;51.052;6.954;2023-01-10T08:23:57;101273.34;;;5.99;87.03
818;BME280;391;51.052;6.954;2023-01-10T08:26:01;101280.38;;;6.01;87.37
818;BME280;391;51.052;6.954;2023-01-10T08:28:04;101276.50;;;5.93;87.01
818;BME280;391;51.052;6.954;2023-01-10T08:30:10;101276.97;;;5.86;87.65
818;BME280;391;51.052;6.954;2023-01-10T08:32:14;101283.69;;;5.84;88.14
818;BME280;391;51.052;6.954;2023-01-10T08:34:17;101280.63;;;5.90;87.69
818;BME280;391;51.052;6.954;2023-01-10T08:36:21;101224.69;;;5.62;87.43
818;BME280;391;51.052;6.954;2023-01-10T08:38:25;101285.75;;;6.04;86.84
818;BME280;391;51.052;6.954;2023-01-10T08:40:28;101285.78;;;5.90;86.57
818;BME280;391;51.052;6.954;2023-01-10T08:42:32;101277.38;;;5.79;87.49
818;BME280;391;51.052;6.954;2023-01-10T08:44:35;101280.84;;;5.94;87.69
818;BME280;391;51.052;6.954;2023-01-10T08:46:41;101288.00;;;5.83;87.52
818;BME280;391;51.052;6.954;2023-01-10T08:48:44;101279.97;;;5.79;87.39
818;BME280;391;51.052;6.954;2023-01-10T08:50:48;101285.47;;;5.85;87.47
818;BME280;391;51.052;6.954;2023-01-10T08:52:51;101272.13;;;5.77;87.65
818;BME280;391;51.052;6.954;2023-01-10T08:54:55;101287.31;;;5.86;87.89
818;BME280;391;51.052;6.954;2023-01-10T08:56:58;101288.28;;;5.88;87.95
818;BME280;391;51.052;6.954;2023-01-10T08:59:02;101289.09;;;5.87;87.87
818;BME280;391;51.052;6.954;2023-01-10T09:01:05;101283.53;;;5.96;87.89
818;BME280;391;51.052;6.954;2023-01-10T09:03:11;101281.84;;;5.96;86.87
818;BME280;391;51.052;6.954;2023-01-10T09:05:14;101289.94;;;6.02;86.65
818;BME280;391;51.052;6.954;2023-01-10T09:07:33;101294.41;;;6.05;86.81
818;BME280;391;51.052;6.954;2023-01-10T09:09:37;101291.47;;;5.99;87.12
818;BME280;391;51.052;6.954;2023-01-10T09:11:40;101281.81;;;5.81;87.81
818;BME280;391;51.052;6.954;2023-01-10T09:13:43;101245.84;;;5.55;87.40
818;BME280;391;51.052;6.954;2023-01-10T09:15:50;101287.91;;;5.97;88.11
818;BME280;391;51.052;6.954;2023-01-10T09:17:55;101290.19;;;6.07;87.47
818;BME280;391;51.052;6.954;2023-01-10T09:20:00;101297.09;;;6.22;86.71
818;BME280;391;51.052;6.954;2023-01-10T09:22:07;101297.72;;;6.02;86.66
818;BME280;391;51.052;6.954;2023-01-10T09:24:10;101296.13;;;6.20;86.46
818;BME280;391;51.052;6.954;2023-01-10T09:26:13;101299.22;;;6.29;86.19
818;BME280;391;51.052;6.954;2023-01-10T09:28:18;101303.53;;;6.45;85.65
818;BME280;391;51.052;6.954;2023-01-10T09:30:21;101298.44;;;6.47;85.88
818;BME280;391;51.052;6.954;2023-01-10T09:32:25;101298.91;;;6.39;85.83
818;BME280;391;51.052;6.954;2023-01-10T09:34:28;101290.84;;;6.50;85.75
818;BME280;391;51.052;6.954;2023-01-10T09:36:33;101303.97;;;6.69;84.89
818;BME280;391;51.052;6.954;2023-01-10T09:38:36;101309.72;;;6.63;84.38
818;BME280;391;51.052;6.954;2023-01-10T09:40:48;101305.06;;;6.58;84.49
818;BME280;391;51.052;6.954;2023-01-10T09:43:04;101303.53;;;6.61;84.71
818;BME280;391;51.052;6.954;2023-01-10T09:45:14;101310.03;;;6.69;84.20
818;BME280;391;51.052;6.954;2023-01-10T09:47:23;101311.44;;;6.79;84.13
818;BME280;391;51.052;6.954;2023-01-10T09:49:40;101319.69;;;6.88;83.61
818;BME280;391;51.052;6.954;2023-01-10T09:51:49;101318.63;;;6.84;84.07
818;BME280;391;51.052;6.954;2023-01-10T09:53:56;101317.72;;;6.84;83.18
818;BME280;391;51.052;6.954;2023-01-10T09:56:14;101326.13;;;6.80;83.05
818;BME280;391;51.052;6.954;2023-01-10T09:58:19;101314.50;;;6.88;83.72
818;BME280;391;51.052;6.954;2023-01-10T10:00:35;101326.81;;;7.08;82.54
818;BME280;391;51.052;6.954;2023-01-10T10:02:44;101318.19;;;7.09;82.58
818;BME280;391;51.052;6.954;2023-01-10T10:05:00;101278.38;;;6.91;82.47
818;BME280;391;51.052;6.954;2023-01-10T10:07:11;101316.56;;;7.27;81.99
818;BME280;391;51.052;6.954;2023-01-10T10:09:22;101311.41;;;7.45;81.42
818;BME280;391;51.052;6.954;2023-01-10T10:11:40;101313.81;;;7.58;80.68
818;BME280;391;51.052;6.954;2023-01-10T10:13:54;101310.59;;;7.46;80.14
818;BME280;391;51.052;6.954;2023-01-10T10:16:11;101315.66;;;7.61;79.92
818;BME280;391;51.052;6.954;2023-01-10T10:18:23;101310.09;;;7.71;79.91
818;BME280;391;51.052;6.954;2023-01-10T10:20:39;101303.81;;;7.83;79.89
818;BME280;391;51.052;6.954;2023-01-10T10:22:58;101298.47;;;7.80;79.39
818;BME280;391;51.052;6.954;2023-01-10T10:25:14;101307.97;;;7.80;79.72
818;BME280;391;51.052;6.954;2023-01-10T10:27:22;101298.69;;;8.03;79.08
818;BME280;391;51.052;6.954;2023-01-10T10:29:46;101302.31;;;7.88;78.41
818;BME280;391;51.052;6.954;2023-01-10T10:32:03;101289.56;;;7.93;77.98
818;BME280;391;51.052;6.954;2023-01-10T10:34:18;101298.41;;;7.96;78.36
818;BME280;391;51.052;6.954;2023-01-10T10:36:29;101292.59;;;8.02;77.70
818;BME280;391;51.052;6.954;2023-01-10T10:38:40;101285.69;;;7.85;77.88
818;BME280;391;51.052;6.954;2023-01-10T10:40:46;101294.88;;;8.14;77.18
818;BME280;391;51.052;6.954;2023-01-10T10:42:54;101297.13;;;8.06;77.33
818;BME280;391;51.052;6.954;2023-01-10T10:45:02;101296.63;;;8.13;77.36
818;BME280;391;51.052;6.954;2023-01-10T10:47:12;101294.34;;;8.21;76.46
818;BME280;391;51.052;6.954;2023-01-10T10:49:21;101303.78;;;8.19;76.03
818;BME280;391;51.052;6.954;2023-01-10T10:51:32;101300.44;;;8.21;76.39
818;BME280;391;51.052;6.954;2023-01-10T10:53:38;101283.84;;;8.35;76.39
818;BME280;391;51.052;6.954;2023-01-10T10:55:42;101301.31;;;8.57;75.61
818;BME280;391;51.052;6.954;2023-01-10T10:57:46;101287.41;;;8.57;75.68
818;BME280;391;51.052;6.954;2023-01-10T11:00:04;101270.16;;;8.39;75.00
818;BME280;391;51.052;6.954;2023-01-10T11:02:21;101280.16;;;8.49;75.80
818;BME280;391;51.052;6.954;2023-01-10T11:04:25;101268.88;;;8.49;75.76
818;BME280;391;51.052;6.954;2023-01-10T11:06:30;101267.25;;;8.70;75.60
818;BME280;391;51.052;6.954;2023-01-10T11:08:37;101259.97;;;8.82;74.68
818;BME280;391;51.052;6.954;2023-01-10T11:10:46;101263.75;;;8.70;74.93
818;BME280;391;51.052;6.954;2023-01-10T11:12:51;101273.94;;;8.65;75.31
818;BME280;391;51.052;6.954;2023-01-10T11:14:54;101266.75;;;8.60;74.96
818;BME280;391;51.052;6.954;2023-01-10T11:17:17;101248.81;;;8.46;74.63
818;BME280;391;51.052;6.954;2023-01-10T11:19:22;101265.78;;;8.38;75.43
818;BME280;391;51.052;6.954;2023-01-10T11:21:26;101205.88;;;7.98;74.88
818;BME280;391;51.052;6.954;2023-01-10T11:23:40;101246.63;;;8.36;75.60
818;BME280;391;51.052;6.954;2023-01-10T11:25:46;101245.00;;;8.38;75.05
818;BME280;391;51.052;6.954;2023-01-10T11:27:53;101246.63;;;8.36;75.47
818;BME280;391;51.052;6.954;2023-01-10T11:29:58;101249.78;;;8.29;75.40
818;BME280;391;51.052;6.954;2023-01-10T11:32:08;101241.81;;;8.26;75.18
818;BME280;391;51.052;6.954;2023-01-10T11:34:20;101248.78;;;8.27;75.21
818;BME280;391;51.052;6.954;2023-01-10T11:36:25;101261.94;;;8.30;75.32
818;BME280;391;51.052;6.954;2023-01-10T11:38:29;101249.53;;;8.25;74.96
818;BME280;391;51.052;6.954;2023-01-10T11:40:34;101251.53;;;8.30;74.74
818;BME280;391;51.052;6.954;2023-01-10T11:42:40;101241.50;;;8.20;74.55
818;BME280;391;51.052;6.954;2023-01-10T11:44:44;101244.41;;;8.26;74.01
818;BME280;391;51.052;6.954;2023-01-10T11:46:49;101251.38;;;8.27;73.63
818;BME280;391;51.052;6.954;2023-01-10T11:48:59;101236.41;;;8.22;73.46
818;BME280;391;51.052;6.954;2023-01-10T11:51:17;101237.91;;;8.17;73.07
818;BME280;391;51.052;6.954;2023-01-10T11:53:31;101243.16;;;8.18;73.29